sensor_id;sensor_type;location;lat;lon;timestamp;pressure;altitude;pressure_sealevel;temperature;humidity
6435;BME280;3250;42.694;23.278;2022-11-15T00:01:33;95412.03;;;3.92;89.59
6435;BME280;3250;42.694;23.278;2022-11-15T00:03:58;95421.63;;;3.91;89.18
6435;BME280;3250;42.694;23.278;2022-11-15T00:06:23;95427.50;;;3.93;89.65
6435;BME280;3250;42.694;23.278;2022-11-15T00:08:49;95373.00;;;3.66;89.11
6435;BME280;3250;42.694;23.278;2022-11-15T00:11:14;95400.72;;;3.75;89.07
6435;BME280;3250;42.694;23.278;2022-11-15T00:13:40;95352.78;;;3.52;88.99
6435;BME280;3250;42.694;23.278;2022-11-15T00:16:05;95424.56;;;3.88;89.12
6435;BME280;3250;42.694;23.278;2022-11-15T00:18:31;95419.00;;;3.91;89.11
6435;BME280;3250;42.694;23.278;2022-11-15T00:21:06;95378.41;;;3.72;88.85
6435;BME280;3250;42.694;23.278;2022-11-15T00:23:33;95412.50;;;3.87;88.83
6435;BME280;3250;42.694;23.278;2022-11-15T00:25:59;95373.50;;;3.61;88.89
6435;BME280;3250;42.694;23.278;2022-11-15T00:28:25;95411.16;;;3.83;88.96
6435;BME280;3250;42.694;23.278;2022-11-15T00:30:59;95379.84;;;3.67;88.76
6435;BME280;3250;42.694;23.278;2022-11-15T00:33:25;95368.44;;;3.60;88.74
6435;BME280;3250;42.694;23.278;2022-11-15T00:35:50;95401.53;;;3.75;88.64
6435;BME280;3250;42.694;23.278;2022-11-15T00:38:16;95394.84;;;3.73;88.45
6435;BME280;3250;42.694;23.278;2022-11-15T00:40:41;95398.25;;;3.73;88.54
6435;BME280;3250;42.694;23.278;2022-11-15T00:43:06;95403.63;;;3.72;88.33
6435;BME280;3250;42.694;23.278;2022-11-15T00:45:32;95396.91;;;3.61;88.73
6435;BME280;3250;42.694;23.278;2022-11-15T00:47:57;95325.56;;;3.12;88.71
6435;BME280;3250;42.694;23.278;2022-11-15T00:50:23;95344.38;;;3.32;89.07
6435;BME280;3250;42.694;23.278;2022-11-15T00:52:48;95370.31;;;3.50;89.04
6435;BME280;3250;42.694;23.278;2022-11-15T00:55:15;95395.13;;;3.62;90.27
6435;BME280;3250;42.694;23.278;2022-11-15T00:57:41;95373.94;;;3.57;90.19
6435;BME280;3250;42.694;23.278;2022-11-15T01:00:07;95333.66;;;3.35;89.59
6435;BME280;3250;42.694;23.278;2022-11-15T01:02:32;95347.06;;;3.48;88.99
6435;BME280;3250;42.694;23.278;2022-11-15T01:04:58;95364.34;;;3.57;89.01
6435;BME280;3250;42.694;23.278;2022-11-15T01:07:23;95391.63;;;3.79;88.63
6435;BME280;3250;42.694;23.278;2022-11-15T01:09:49;95386.72;;;3.76;88.28
6435;BME280;3250;42.694;23.278;2022-11-15T01:12:14;95381.81;;;3.73;88.29
6435;BME280;3250;42.694;23.278;2022-11-15T01:14:39;95351.44;;;3.48;88.63
6435;BME280;3250;42.694;23.278;2022-11-15T01:17:05;95388.13;;;3.62;88.38
6435;BME280;3250;42.694;23.278;2022-11-15T01:19:31;95389.09;;;3.61;88.09
6435;BME280;3250;42.694;23.278;2022-11-15T01:21:56;95365.59;;;3.45;88.31
6435;BME280;3250;42.694;23.278;2022-11-15T01:24:21;95385.03;;;3.59;88.26
6435;BME280;3250;42.694;23.278;2022-11-15T01:26:47;95388.75;;;3.56;88.76
6435;BME280;3250;42.694;23.278;2022-11-15T01:29:12;95380.06;;;3.48;88.72
6435;BME280;3250;42.694;23.278;2022-11-15T01:31:37;95328.88;;;3.22;88.65
6435;BME280;3250;42.694;23.278;2022-11-15T01:34:03;95377.03;;;3.52;88.49
6435;BME280;3250;42.694;23.278;2022-11-15T01:36:29;95350.72;;;3.37;88.54
6435;BME280;3250;42.694;23.278;2022-11-15T01:38:58;95358.91;;;3.42;88.55
6435;BME280;3250;42.694;23.278;2022-11-15T01:41:26;95377.69;;;3.54;88.56
6435;BME280;3250;42.694;23.278;2022-11-15T01:43:53;95375.38;;;3.51;88.42
6435;BME280;3250;42.694;23.278;2022-11-15T01:48:52;95373.91;;;3.49;88.71
6435;BME280;3250;42.694;23.278;2022-11-15T01:51:21;95375.53;;;3.50;88.80
6435;BME280;3250;42.694;23.278;2022-11-15T01:53:49;95373.06;;;3.48;88.93
6435;BME280;3250;42.694;23.278;2022-11-15T01:56:19;95368.66;;;3.40;89.12
6435;BME280;3250;42.694;23.278;2022-11-15T01:58:45;95367.97;;;3.38;89.10
6435;BME280;3250;42.694;23.278;2022-11-15T02:01:13;95375.50;;;3.41;88.83
6435;BME280;3250;42.694;23.278;2022-11-15T02:03:48;95371.63;;;3.46;89.10
6435;BME280;3250;42.694;23.278;2022-11-15T02:06:15;95358.53;;;3.37;88.41
6435;BME280;3250;42.694;23.278;2022-11-15T02:08:42;95364.41;;;3.39;88.54
6435;BME280;3250;42.694;23.278;2022-11-15T02:11:08;95351.72;;;3.36;88.76
6435;BME280;3250;42.694;23.278;2022-11-15T02:13:34;95361.66;;;3.41;88.57
6435;BME280;3250;42.694;23.278;2022-11-15T02:18:39;95360.94;;;3.31;88.56
6435;BME280;3250;42.694;23.278;2022-11-15T02:29:01;95343.75;;;3.12;88.45
6435;BME280;3250;42.694;23.278;2022-11-15T02:34:47;95362.59;;;3.32;88.43
6435;BME280;3250;42.694;23.278;2022-11-15T02:40:17;95352.81;;;3.26;87.75
6435;BME280;3250;42.694;23.278;2022-11-15T02:42:55;95359.78;;;3.25;88.51
6435;BME280;3250;42.694;23.278;2022-11-15T02:45:45;95363.97;;;3.18;88.67
6435;BME280;3250;42.694;23.278;2022-11-15T02:48:13;95344.38;;;3.06;88.28
6435;BME280;3250;42.694;23.278;2022-11-15T02:50:40;95346.00;;;3.07;88.50
6435;BME280;3250;42.694;23.278;2022-11-15T02:53:08;95362.00;;;3.20;88.61
6435;BME280;3250;42.694;23.278;2022-11-15T02:55:46;95360.91;;;3.23;88.62
6435;BME280;3250;42.694;23.278;2022-11-15T03:01:11;95354.16;;;3.12;88.13
6435;BME280;3250;42.694;23.278;2022-11-15T03:03:49;95351.22;;;3.07;88.67
6435;BME280;3250;42.694;23.278;2022-11-15T03:07:00;95370.63;;;3.21;88.99
6435;BME280;3250;42.694;23.278;2022-11-15T03:09:39;95380.59;;;3.25;89.14
6435;BME280;3250;42.694;23.278;2022-11-15T03:15:18;95355.16;;;3.37;89.44
6435;BME280;3250;42.694;23.278;2022-11-15T03:20:40;95354.09;;;3.56;90.19
6435;BME280;3250;42.694;23.278;2022-11-15T03:23:09;95354.94;;;3.64;90.19
6435;BME280;3250;42.694;23.278;2022-11-15T03:25:40;95356.13;;;3.70;90.11
6435;BME280;3250;42.694;23.278;2022-11-15T03:28:09;95296.31;;;3.44;90.15
6435;BME280;3250;42.694;23.278;2022-11-15T03:30:37;95352.41;;;3.80;90.36
6435;BME280;3250;42.694;23.278;2022-11-15T03:33:04;95339.06;;;3.84;90.35
6435;BME280;3250;42.694;23.278;2022-11-15T03:35:35;95333.88;;;3.84;90.41
6435;BME280;3250;42.694;23.278;2022-11-15T03:38:11;95341.88;;;3.98;90.53
6435;BME280;3250;42.694;23.278;2022-11-15T03:40:41;95323.63;;;3.90;90.54
6435;BME280;3250;42.694;23.278;2022-11-15T03:45:58;95337.88;;;4.12;90.82
6435;BME280;3250;42.694;23.278;2022-11-15T03:48:30;95313.28;;;4.06;91.22
6435;BME280;3250;42.694;23.278;2022-11-15T03:50:58;95331.38;;;4.24;91.41
6435;BME280;3250;42.694;23.278;2022-11-15T03:53:24;95325.84;;;4.27;91.42
6435;BME280;3250;42.694;23.278;2022-11-15T03:55:49;95316.25;;;4.28;91.43
6435;BME280;3250;42.694;23.278;2022-11-15T03:58:15;95299.31;;;4.24;91.01
6435;BME280;3250;42.694;23.278;2022-11-15T04:00:40;95325.53;;;4.38;91.56
6435;BME280;3250;42.694;23.278;2022-11-15T04:03:06;95313.50;;;4.45;91.60
6435;BME280;3250;42.694;23.278;2022-11-15T04:05:33;95302.56;;;4.42;91.70
6435;BME280;3250;42.694;23.278;2022-11-15T04:07:58;95324.09;;;4.60;91.32
6435;BME280;3250;42.694;23.278;2022-11-15T04:10:24;95314.00;;;4.57;91.78
6435;BME280;3250;42.694;23.278;2022-11-15T04:12:49;95325.72;;;4.69;91.55
6435;BME280;3250;42.694;23.278;2022-11-15T04:15:18;95328.00;;;4.72;91.65
6435;BME280;3250;42.694;23.278;2022-11-15T04:17:44;95307.00;;;4.66;92.01
6435;BME280;3250;42.694;23.278;2022-11-15T04:20:18;95321.81;;;4.81;92.50
6435;BME280;3250;42.694;23.278;2022-11-15T04:23:05;95319.06;;;4.75;93.58
6435;BME280;3250;42.694;23.278;2022-11-15T04:25:51;95315.94;;;4.79;93.48
6435;BME280;3250;42.694;23.278;2022-11-15T04:28:18;95312.19;;;4.74;94.07
6435;BME280;3250;42.694;23.278;2022-11-15T04:30:44;95299.66;;;4.61;94.89
6435;BME280;3250;42.694;23.278;2022-11-15T04:33:09;95317.56;;;4.80;95.10
6435;BME280;3250;42.694;23.278;2022-11-15T04:35:34;95312.66;;;4.85;95.26
6435;BME280;3250;42.694;23.278;2022-11-15T04:38:01;95314.63;;;4.91;95.36
6435;BME280;3250;42.694;23.278;2022-11-15T04:40:27;95318.88;;;5.01;95.39
6435;BME280;3250;42.694;23.278;2022-11-15T04:42:52;95315.59;;;4.99;95.23
6435;BME280;3250;42.694;23.278;2022-11-15T04:45:17;95315.25;;;5.02;95.49
6435;BME280;3250;42.694;23.278;2022-11-15T04:47:44;95317.38;;;5.06;95.17
6435;BME280;3250;42.694;23.278;2022-11-15T04:50:12;95316.25;;;5.09;94.87
6435;BME280;3250;42.694;23.278;2022-11-15T04:52:43;95322.09;;;5.11;95.22
6435;BME280;3250;42.694;23.278;2022-11-15T04:55:11;95325.50;;;5.11;95.21
6435;BME280;3250;42.694;23.278;2022-11-15T04:57:37;95327.66;;;5.16;94.84
6435;BME280;3250;42.694;23.278;2022-11-15T05:00:08;95326.84;;;5.15;94.43
6435;BME280;3250;42.694;23.278;2022-11-15T05:02:34;95325.84;;;5.16;94.42
6435;BME280;3250;42.694;23.278;2022-11-15T05:05:18;95320.47;;;5.18;94.66
6435;BME280;3250;42.694;23.278;2022-11-15T05:07:43;95313.44;;;5.10;94.72
6435;BME280;3250;42.694;23.278;2022-11-15T05:10:09;95334.00;;;5.21;94.77
6435;BME280;3250;42.694;23.278;2022-11-15T05:12:35;95334.97;;;5.20;94.86
6435;BME280;3250;42.694;23.278;2022-11-15T05:15:00;95330.56;;;5.21;94.96
6435;BME280;3250;42.694;23.278;2022-11-15T05:17:26;95309.06;;;5.19;95.12
6435;BME280;3250;42.694;23.278;2022-11-15T05:19:51;95284.59;;;5.04;95.25
6435;BME280;3250;42.694;23.278;2022-11-15T05:22:17;95311.31;;;5.22;95.09
6435;BME280;3250;42.694;23.278;2022-11-15T05:24:43;95318.31;;;5.29;95.10
6435;BME280;3250;42.694;23.278;2022-11-15T05:27:08;95320.28;;;5.27;95.28
6435;BME280;3250;42.694;23.278;2022-11-15T05:29:34;95299.25;;;5.13;95.33
6435;BME280;3250;42.694;23.278;2022-11-15T05:31:59;95316.53;;;5.22;95.45
6435;BME280;3250;42.694;23.278;2022-11-15T05:34:25;95313.28;;;5.20;95.63
6435;BME280;3250;42.694;23.278;2022-11-15T05:36:52;95314.09;;;5.20;95.45
6435;BME280;3250;42.694;23.278;2022-11-15T05:39:17;95312.16;;;5.14;95.83
6435;BME280;3250;42.694;23.278;2022-11-15T05:44:10;95316.69;;;5.20;96.44
6435;BME280;3250;42.694;23.278;2022-11-15T05:46:37;95318.31;;;5.29;96.22
6435;BME280;3250;42.694;23.278;2022-11-15T05:49:05;95317.16;;;5.32;96.28
6435;BME280;3250;42.694;23.278;2022-11-15T05:51:32;95320.09;;;5.37;95.88
6435;BME280;3250;42.694;23.278;2022-11-15T05:54:00;95321.88;;;5.37;95.66
6435;BME280;3250;42.694;23.278;2022-11-15T05:56:26;95307.72;;;5.31;95.56
6435;BME280;3250;42.694;23.278;2022-11-15T05:58:53;95326.44;;;5.43;95.45
6435;BME280;3250;42.694;23.278;2022-11-15T06:01:20;95314.84;;;5.45;95.50
6435;BME280;3250;42.694;23.278;2022-11-15T06:03:46;95323.16;;;5.49;95.67
6435;BME280;3250;42.694;23.278;2022-11-15T06:06:12;95331.00;;;5.49;95.88
6435;BME280;3250;42.694;23.278;2022-11-15T06:08:37;95337.69;;;5.51;95.59
6435;BME280;3250;42.694;23.278;2022-11-15T06:11:06;95341.28;;;5.50;95.45
6435;BME280;3250;42.694;23.278;2022-11-15T06:13:32;95330.50;;;5.53;95.11
6435;BME280;3250;42.694;23.278;2022-11-15T06:15:58;95321.06;;;5.44;94.39
6435;BME280;3250;42.694;23.278;2022-11-15T06:18:24;95329.50;;;5.54;94.29
6435;BME280;3250;42.694;23.278;2022-11-15T06:20:49;95337.31;;;5.54;94.40
6435;BME280;3250;42.694;23.278;2022-11-15T06:23:15;95339.94;;;5.54;94.30
6435;BME280;3250;42.694;23.278;2022-11-15T06:25:40;95336.50;;;5.54;94.69
6435;BME280;3250;42.694;23.278;2022-11-15T06:28:06;95339.78;;;5.56;94.44
6435;BME280;3250;42.694;23.278;2022-11-15T06:30:31;95326.25;;;5.52;94.55
6435;BME280;3250;42.694;23.278;2022-11-15T06:33:01;95323.28;;;5.55;93.99
6435;BME280;3250;42.694;23.278;2022-11-15T06:35:28;95319.53;;;5.58;94.50
6435;BME280;3250;42.694;23.278;2022-11-15T06:37:54;95304.22;;;5.47;94.92
6435;BME280;3250;42.694;23.278;2022-11-15T06:40:19;95322.66;;;5.53;94.85
6435;BME280;3250;42.694;23.278;2022-11-15T06:42:45;95322.84;;;5.52;95.19
6435;BME280;3250;42.694;23.278;2022-11-15T06:45:10;95328.88;;;5.52;96.13
6435;BME280;3250;42.694;23.278;2022-11-15T06:47:44;95321.50;;;5.56;96.50
6435;BME280;3250;42.694;23.278;2022-11-15T06:50:09;95319.50;;;5.66;96.18
6435;BME280;3250;42.694;23.278;2022-11-15T06:52:36;95316.72;;;5.67;96.17
6435;BME280;3250;42.694;23.278;2022-11-15T06:55:02;95323.22;;;5.72;96.19
6435;BME280;3250;42.694;23.278;2022-11-15T06:57:27;95320.25;;;5.83;95.62
6435;BME280;3250;42.694;23.278;2022-11-15T06:59:52;95316.16;;;5.88;95.23
6435;BME280;3250;42.694;23.278;2022-11-15T07:02:18;95321.72;;;5.93;94.53
6435;BME280;3250;42.694;23.278;2022-11-15T07:04:43;95292.06;;;5.78;94.67
6435;BME280;3250;42.694;23.278;2022-11-15T07:07:09;95322.16;;;5.97;94.65
6435;BME280;3250;42.694;23.278;2022-11-15T07:09:34;95318.94;;;5.95;94.82
6435;BME280;3250;42.694;23.278;2022-11-15T07:12:00;95311.72;;;5.97;95.13
6435;BME280;3250;42.694;23.278;2022-11-15T07:14:25;95306.66;;;6.03;95.22
6435;BME280;3250;42.694;23.278;2022-11-15T07:16:51;95306.81;;;6.02;94.76
6435;BME280;3250;42.694;23.278;2022-11-15T07:19:16;95312.53;;;5.97;94.14
6435;BME280;3250;42.694;23.278;2022-11-15T07:21:41;95292.19;;;5.85;93.93
6435;BME280;3250;42.694;23.278;2022-11-15T07:24:07;95314.84;;;5.92;93.97
6435;BME280;3250;42.694;23.278;2022-11-15T07:26:32;95322.88;;;5.83;94.37
6435;BME280;3250;42.694;23.278;2022-11-15T07:28:58;95321.88;;;5.84;95.15
6435;BME280;3250;42.694;23.278;2022-11-15T07:31:23;95284.75;;;5.65;95.41
6435;BME280;3250;42.694;23.278;2022-11-15T07:33:49;95316.78;;;5.98;95.44
6435;BME280;3250;42.694;23.278;2022-11-15T07:36:14;95321.78;;;6.08;94.91
6435;BME280;3250;42.694;23.278;2022-11-15T07:38:39;95315.59;;;6.09;94.92
6435;BME280;3250;42.694;23.278;2022-11-15T07:41:06;95312.97;;;6.09;95.06
6435;BME280;3250;42.694;23.278;2022-11-15T07:43:32;95291.31;;;6.00;95.22
6435;BME280;3250;42.694;23.278;2022-11-15T07:46:09;95319.09;;;6.24;95.15
6435;BME280;3250;42.694;23.278;2022-11-15T07:48:35;95285.22;;;6.08;94.50
6435;BME280;3250;42.694;23.278;2022-11-15T07:51:01;95314.69;;;6.25;94.73
6435;BME280;3250;42.694;23.278;2022-11-15T07:53:27;95314.00;;;6.31;94.29
6435;BME280;3250;42.694;23.278;2022-11-15T07:55:52;95312.50;;;6.36;94.88
6435;BME280;3250;42.694;23.278;2022-11-15T07:58:19;95293.66;;;6.18;94.48
6435;BME280;3250;42.694;23.278;2022-11-15T08:00:44;95295.97;;;6.13;93.88
6435;BME280;3250;42.694;23.278;2022-11-15T08:03:12;95305.78;;;6.34;93.49
6435;BME280;3250;42.694;23.278;2022-11-15T08:05:39;95314.41;;;6.42;93.28
6435;BME280;3250;42.694;23.278;2022-11-15T08:08:05;95314.34;;;6.51;93.08
6435;BME280;3250;42.694;23.278;2022-11-15T08:10:31;95311.72;;;6.51;92.96
6435;BME280;3250;42.694;23.278;2022-11-15T08:13:02;95302.56;;;6.55;92.62
6435;BME280;3250;42.694;23.278;2022-11-15T08:15:28;95304.03;;;6.57;92.32
6435;BME280;3250;42.694;23.278;2022-11-15T08:17:57;95306.91;;;6.62;92.43
6435;BME280;3250;42.694;23.278;2022-11-15T08:20:24;95275.50;;;6.48;92.55
6435;BME280;3250;42.694;23.278;2022-11-15T08:22:50;95302.50;;;6.63;92.53
6435;BME280;3250;42.694;23.278;2022-11-15T08:25:16;95300.16;;;6.68;92.18
6435;BME280;3250;42.694;23.278;2022-11-15T08:27:42;95303.75;;;6.67;92.35
6435;BME280;3250;42.694;23.278;2022-11-15T08:30:07;95306.69;;;6.72;92.48
6435;BME280;3250;42.694;23.278;2022-11-15T08:32:33;95297.03;;;6.72;92.06
6435;BME280;3250;42.694;23.278;2022-11-15T08:34:59;95295.50;;;6.78;92.36
6435;BME280;3250;42.694;23.278;2022-11-15T08:37:24;95275.28;;;6.72;91.88
6435;BME280;3250;42.694;23.278;2022-11-15T08:39:49;95296.41;;;6.85;92.25
6435;BME280;3250;42.694;23.278;2022-11-15T08:42:15;95287.88;;;6.91;92.09
6435;BME280;3250;42.694;23.278;2022-11-15T08:44:41;95291.22;;;7.00;91.28
6435;BME280;3250;42.694;23.278;2022-11-15T08:47:07;95290.28;;;6.93;90.91
6435;BME280;3250;42.694;23.278;2022-11-15T08:49:32;95288.63;;;7.00;91.35
6435;BME280;3250;42.694;23.278;2022-11-15T08:51:58;95267.22;;;6.96;91.15
6435;BME280;3250;42.694;23.278;2022-11-15T08:54:23;95286.91;;;7.07;91.31
6435;BME280;3250;42.694;23.278;2022-11-15T08:56:48;95275.44;;;7.08;91.66
6435;BME280;3250;42.694;23.278;2022-11-15T08:59:14;95278.69;;;7.10;91.46
6435;BME280;3250;42.694;23.278;2022-11-15T09:01:39;95272.28;;;7.12;91.25
6435;BME280;3250;42.694;23.278;2022-11-15T09:04:04;95273.19;;;7.19;90.39
6435;BME280;3250;42.694;23.278;2022-11-15T09:06:30;95260.66;;;7.15;90.13
6435;BME280;3250;42.694;23.278;2022-11-15T09:08:56;95255.50;;;7.22;90.65
6435;BME280;3250;42.694;23.278;2022-11-15T09:11:22;95259.19;;;7.27;90.74
6435;BME280;3250;42.694;23.278;2022-11-15T09:13:49;95259.47;;;7.32;90.83
6435;BME280;3250;42.694;23.278;2022-11-15T09:16:15;95252.06;;;7.36;90.69
6435;BME280;3250;42.694;23.278;2022-11-15T09:18:41;95257.50;;;7.34;90.66
6435;BME280;3250;42.694;23.278;2022-11-15T09:21:06;95248.91;;;7.40;89.80
6435;BME280;3250;42.694;23.278;2022-11-15T09:23:32;95236.91;;;7.16;89.10
6435;BME280;3250;42.694;23.278;2022-11-15T09:25:59;95244.38;;;7.05;89.08
6435;BME280;3250;42.694;23.278;2022-11-15T09:28:25;95240.50;;;7.01;90.34
6435;BME280;3250;42.694;23.278;2022-11-15T09:30:51;95214.31;;;6.86;89.90
6435;BME280;3250;42.694;23.278;2022-11-15T09:33:17;95238.06;;;7.14;90.64
6435;BME280;3250;42.694;23.278;2022-11-15T09:35:42;95205.22;;;7.11;90.05
6435;BME280;3250;42.694;23.278;2022-11-15T09:38:07;95228.31;;;7.37;89.08
6435;BME280;3250;42.694;23.278;2022-11-15T09:40:36;95229.03;;;7.46;87.70
6435;BME280;3250;42.694;23.278;2022-11-15T09:49:02;95218.59;;;7.82;87.52
6435;BME280;3250;42.694;23.278;2022-11-15T09:51:04;95212.88;;;7.93;87.90
6435;BME280;3250;42.694;23.278;2022-11-15T09:56:22;95211.28;;;8.35;85.90
6435;BME280;3250;42.694;23.278;2022-11-15T10:04:25;95190.72;;;7.95;85.46
6435;BME280;3250;42.694;23.278;2022-11-15T10:07:01;95198.09;;;8.07;84.91
6435;BME280;3250;42.694;23.278;2022-11-15T10:09:39;95188.38;;;8.43;85.47
6435;BME280;3250;42.694;23.278;2022-11-15T10:12:08;95192.25;;;8.75;83.57
6435;BME280;3250;42.694;23.278;2022-11-15T10:14:35;95192.00;;;8.98;83.65
6435;BME280;3250;42.694;23.278;2022-11-15T10:20:19;95182.44;;;9.66;80.74
6435;BME280;3250;42.694;23.278;2022-11-15T10:22:25;95175.03;;;9.89;77.98
6435;BME280;3250;42.694;23.278;2022-11-15T10:25:00;95169.59;;;9.97;77.67
6435;BME280;3250;42.694;23.278;2022-11-15T10:27:39;95148.78;;;10.02;77.39
6435;BME280;3250;42.694;23.278;2022-11-15T10:30:15;95177.78;;;10.29;76.91
6435;BME280;3250;42.694;23.278;2022-11-15T10:32:42;95166.44;;;10.35;76.24
6435;BME280;3250;42.694;23.278;2022-11-15T10:35:27;95163.00;;;10.41;75.23
6435;BME280;3250;42.694;23.278;2022-11-15T10:38:07;95153.09;;;10.36;75.55
6435;BME280;3250;42.694;23.278;2022-11-15T10:40:33;95135.28;;;10.18;75.19
6435;BME280;3250;42.694;23.278;2022-11-15T10:43:17;95140.47;;;10.12;76.02
6435;BME280;3250;42.694;23.278;2022-11-15T10:45:43;95112.50;;;9.78;75.67
6435;BME280;3250;42.694;23.278;2022-11-15T10:50:39;95128.91;;;9.87;75.87
6435;BME280;3250;42.694;23.278;2022-11-15T10:53:15;95131.34;;;9.95;77.22
6435;BME280;3250;42.694;23.278;2022-11-15T10:55:47;95124.25;;;9.95;76.02
6435;BME280;3250;42.694;23.278;2022-11-15T11:00:45;95120.38;;;9.78;76.70
6435;BME280;3250;42.694;23.278;2022-11-15T11:03:28;95109.69;;;9.86;77.73
6435;BME280;3250;42.694;23.278;2022-11-15T11:08:31;95100.81;;;9.94;76.65
6435;BME280;3250;42.694;23.278;2022-11-15T11:10:58;95109.09;;;9.97;75.84
6435;BME280;3250;42.694;23.278;2022-11-15T11:13:38;95102.22;;;9.90;76.14
6435;BME280;3250;42.694;23.278;2022-11-15T11:18:56;95097.75;;;10.03;76.69
6435;BME280;3250;42.694;23.278;2022-11-15T11:32:38;95062.78;;;10.16;75.71
6435;BME280;3250;42.694;23.278;2022-11-15T11:35:15;95056.50;;;10.17;76.12
6435;BME280;3250;42.694;23.278;2022-11-15T11:37:52;95054.91;;;10.23;75.96
6435;BME280;3250;42.694;23.278;2022-11-15T11:43:14;95045.59;;;10.33;75.60
6435;BME280;3250;42.694;23.278;2022-11-15T11:48:46;95041.75;;;10.36;75.57
6435;BME280;3250;42.694;23.278;2022-11-15T11:51:28;95003.09;;;10.16;75.74
6435;BME280;3250;42.694;23.278;2022-11-15T11:56:37;95027.16;;;10.40;75.51
6435;BME280;3250;42.694;23.278;2022-11-15T11:59:25;95018.88;;;10.36;75.05
6435;BME280;3250;42.694;23.278;2022-11-15T12:01:54;95013.44;;;10.38;74.72
6435;BME280;3250;42.694;23.278;2022-11-15T12:04:48;95011.59;;;10.32;75.00
6435;BME280;3250;42.694;23.278;2022-11-15T12:07:26;95007.16;;;10.32;75.18
6435;BME280;3250;42.694;23.278;2022-11-15T12:09:59;95002.50;;;10.34;75.55
6435;BME280;3250;42.694;23.278;2022-11-15T12:12:49;94996.41;;;10.40;75.35
6435;BME280;3250;42.694;23.278;2022-11-15T12:15:27;94992.59;;;10.23;75.30
6435;BME280;3250;42.694;23.278;2022-11-15T12:17:56;94987.31;;;10.16;75.66
6435;BME280;3250;42.694;23.278;2022-11-15T12:20:24;94980.63;;;10.14;75.72
6435;BME280;3250;42.694;23.278;2022-11-15T12:25:34;94977.00;;;10.21;76.34
6435;BME280;3250;42.694;23.278;2022-11-15T12:30:55;94974.16;;;10.30;75.63
6435;BME280;3250;42.694;23.278;2022-11-15T12:33:37;94967.91;;;10.24;75.49
6435;BME280;3250;42.694;23.278;2022-11-15T12:36:08;94954.34;;;10.20;75.65
6435;BME280;3250;42.694;23.278;2022-11-15T12:41:22;94948.66;;;10.17;75.92
6435;BME280;3250;42.694;23.278;2022-11-15T12:43:48;94956.53;;;10.30;75.66
6435;BME280;3250;42.694;23.278;2022-11-15T12:48:58;94952.91;;;10.38;75.43
6435;BME280;3250;42.694;23.278;2022-11-15T13:02:37;94940.59;;;10.25;75.77
6435;BME280;3250;42.694;23.278;2022-11-15T13:17:44;94921.56;;;10.23;76.47
6435;BME280;3250;42.694;23.278;2022-11-15T13:27:57;94918.09;;;10.16;76.62
6435;BME280;3250;42.694;23.278;2022-11-15T13:30:29;94906.78;;;10.15;77.04
6435;BME280;3250;42.694;23.278;2022-11-15T13:32:56;94911.44;;;10.13;76.81
6435;BME280;3250;42.694;23.278;2022-11-15T13:35:26;94911.66;;;10.05;77.14
6435;BME280;3250;42.694;23.278;2022-11-15T13:37:54;94913.28;;;10.00;77.04
6435;BME280;3250;42.694;23.278;2022-11-15T13:40:28;94912.50;;;9.93;77.96
6435;BME280;3250;42.694;23.278;2022-11-15T13:42:56;94913.31;;;9.93;78.02
6435;BME280;3250;42.694;23.278;2022-11-15T13:45:22;94896.13;;;9.84;78.02
6435;BME280;3250;42.694;23.278;2022-11-15T13:47:56;94911.69;;;9.92;78.03
6435;BME280;3250;42.694;23.278;2022-11-15T13:50:27;94907.44;;;9.91;78.22
6435;BME280;3250;42.694;23.278;2022-11-15T13:52:57;94898.75;;;9.91;78.43
6435;BME280;3250;42.694;23.278;2022-11-15T13:55:25;94909.09;;;9.86;78.59
6435;BME280;3250;42.694;23.278;2022-11-15T13:57:59;94896.72;;;9.79;78.77
6435;BME280;3250;42.694;23.278;2022-11-15T14:00:41;94903.00;;;9.72;79.21
6435;BME280;3250;42.694;23.278;2022-11-15T14:06:16;94905.03;;;9.63;79.33
6435;BME280;3250;42.694;23.278;2022-11-15T14:11:36;94877.38;;;9.41;79.98
6435;BME280;3250;42.694;23.278;2022-11-15T14:16:44;94892.53;;;9.45;80.22
6435;BME280;3250;42.694;23.278;2022-11-15T14:19:32;94891.09;;;9.43;80.37
6435;BME280;3250;42.694;23.278;2022-11-15T14:22:08;94889.50;;;9.35;80.81
6435;BME280;3250;42.694;23.278;2022-11-15T14:24:34;94880.63;;;9.23;81.22
6435;BME280;3250;42.694;23.278;2022-11-15T14:27:23;94889.50;;;9.22;81.55
6435;BME280;3250;42.694;23.278;2022-11-15T14:29:49;94848.06;;;8.91;81.68
6435;BME280;3250;42.694;23.278;2022-11-15T14:32:58;94896.75;;;9.14;81.90
6435;BME280;3250;42.694;23.278;2022-11-15T14:35:14;94890.09;;;9.04;82.11
6435;BME280;3250;42.694;23.278;2022-11-15T14:37:40;94894.91;;;9.01;82.37
6435;BME280;3250;42.694;23.278;2022-11-15T14:40:06;94884.22;;;8.89;82.55
6435;BME280;3250;42.694;23.278;2022-11-15T14:42:31;94897.13;;;8.91;82.74
6435;BME280;3250;42.694;23.278;2022-11-15T14:44:57;94898.72;;;8.85;82.99
6435;BME280;3250;42.694;23.278;2022-11-15T14:47:22;94898.72;;;8.79;83.37
6435;BME280;3250;42.694;23.278;2022-11-15T14:49:48;94892.03;;;8.69;83.67
6435;BME280;3250;42.694;23.278;2022-11-15T14:52:28;94890.81;;;8.65;84.00
6435;BME280;3250;42.694;23.278;2022-11-15T14:54:55;94890.22;;;8.63;83.80
6435;BME280;3250;42.694;23.278;2022-11-15T14:57:20;94891.78;;;8.51;84.16
6435;BME280;3250;42.694;23.278;2022-11-15T14:59:46;94887.53;;;8.44;84.60
6435;BME280;3250;42.694;23.278;2022-11-15T15:02:23;94887.72;;;8.42;84.69
6435;BME280;3250;42.694;23.278;2022-11-15T15:04:49;94884.47;;;8.40;85.02
6435;BME280;3250;42.694;23.278;2022-11-15T15:07:15;94885.25;;;8.34;85.18
6435;BME280;3250;42.694;23.278;2022-11-15T15:09:41;94882.41;;;8.29;84.94
6435;BME280;3250;42.694;23.278;2022-11-15T15:12:21;94882.97;;;8.24;85.51
6435;BME280;3250;42.694;23.278;2022-11-15T15:14:48;94859.69;;;8.02;85.45
6435;BME280;3250;42.694;23.278;2022-11-15T15:17:14;94878.06;;;8.08;85.43
6435;BME280;3250;42.694;23.278;2022-11-15T15:19:39;94873.41;;;8.04;85.66
6435;BME280;3250;42.694;23.278;2022-11-15T15:22:05;94870.56;;;7.99;85.77
6435;BME280;3250;42.694;23.278;2022-11-15T15:24:31;94872.97;;;7.93;86.02
6435;BME280;3250;42.694;23.278;2022-11-15T15:26:56;94870.09;;;7.88;86.72
6435;BME280;3250;42.694;23.278;2022-11-15T15:29:21;94869.25;;;7.81;87.28
6435;BME280;3250;42.694;23.278;2022-11-15T15:31:47;94851.88;;;7.74;86.96
6435;BME280;3250;42.694;23.278;2022-11-15T15:34:12;94856.94;;;7.75;87.39
6435;BME280;3250;42.694;23.278;2022-11-15T15:36:38;94841.13;;;7.62;87.20
6435;BME280;3250;42.694;23.278;2022-11-15T15:39:03;94852.31;;;7.77;87.53